createdAt,value
2019-05-30T00:04:28.203Z,15.30
2019-05-30T00:07:00.544Z,15.30
2019-05-30T00:09:27.441Z,15.30
2019-05-30T00:12:00.909Z,15.30
2019-05-30T00:14:30.504Z,15.20
2019-05-30T00:19:33.845Z,15.10
2019-05-30T00:22:03.725Z,15.10
2019-05-30T00:24:31.875Z,15.10
2019-05-30T00:27:00.284Z,15.10
2019-05-30T00:29:28.939Z,15.10
2019-05-30T00:31:57.500Z,15.10
2019-05-30T00:34:28.015Z,15.10
2019-05-30T00:36:57.625Z,15.10
2019-05-30T00:39:26.932Z,15.10
2019-05-30T00:41:55.982Z,15.10
2019-05-30T00:46:52.625Z,15.10
2019-05-30T00:49:22.162Z,15.00
2019-05-30T00:51:50.838Z,15.20
2019-05-30T00:54:20.814Z,15.10
2019-05-30T00:56:49.017Z,15.00
2019-05-30T00:59:18.174Z,15.00
2019-05-30T01:01:45.540Z,14.90
2019-05-30T01:04:14.046Z,14.80
2019-05-30T01:06:44.308Z,14.70
2019-05-30T01:09:13.676Z,14.60
2019-05-30T01:11:42.522Z,14.60
2019-05-30T01:14:11.153Z,14.60
2019-05-30T01:16:42.297Z,14.50
2019-05-30T01:19:08.831Z,14.60
2019-05-30T01:21:38.120Z,14.60
2019-05-30T01:24:07.671Z,14.60
2019-05-30T01:26:36.346Z,14.50
2019-05-30T01:29:05.574Z,14.60
2019-05-30T01:31:35.368Z,14.60
2019-05-30T01:34:05.749Z,14.50
2019-05-30T01:36:35.582Z,14.50
2019-05-30T01:39:05.896Z,14.60
2019-05-30T01:41:34.008Z,14.60
2019-05-30T01:44:03.924Z,14.50
2019-05-30T01:46:32.709Z,14.50
2019-05-30T01:49:02.231Z,14.50
2019-05-30T01:51:30.753Z,14.50
2019-05-30T01:54:00.528Z,14.50
2019-05-30T01:56:29.173Z,14.50
2019-05-30T01:58:58.553Z,14.40
2019-05-30T02:01:29.287Z,14.40
2019-05-30T02:03:59.113Z,14.40
2019-05-30T02:06:37.977Z,14.40
2019-05-30T02:09:10.765Z,14.40
2019-05-30T02:11:41.775Z,14.30
2019-05-30T02:14:17.570Z,14.30
2019-05-30T02:16:53.549Z,14.30
2019-05-30T02:19:21.982Z,14.30
2019-05-30T02:21:49.325Z,14.20
2019-05-30T02:24:17.710Z,14.20
2019-05-30T02:26:46.655Z,14.10
2019-05-30T02:29:17.706Z,14.10
2019-05-30T02:31:48.359Z,14.10
2019-05-30T02:34:16.463Z,14.10
2019-05-30T02:36:45.795Z,14.10
2019-05-30T02:39:16.348Z,14.10
2019-05-30T02:41:46.429Z,14.00
2019-05-30T02:44:16.040Z,13.90
2019-05-30T02:46:44.908Z,13.90
2019-05-30T02:49:14.323Z,13.80
2019-05-30T02:51:43.186Z,13.80
2019-05-30T02:54:11.586Z,13.80
2019-05-30T02:56:41.963Z,13.80
2019-05-30T02:59:12.991Z,13.70
2019-05-30T03:01:58.982Z,13.70
2019-05-30T03:04:13.019Z,14.00
2019-05-30T03:06:41.444Z,13.70
2019-05-30T03:09:12.961Z,13.80
2019-05-30T03:11:43.289Z,13.70
2019-05-30T03:14:19.015Z,13.70
2019-05-30T03:16:44.830Z,13.70
2019-05-30T03:19:12.692Z,13.70
2019-05-30T03:21:41.435Z,13.50
2019-05-30T03:24:10.115Z,13.70
2019-05-30T03:26:41.186Z,13.60
2019-05-30T03:29:11.856Z,13.50
2019-05-30T03:31:41.657Z,13.60
2019-05-30T03:34:22.290Z,13.60
2019-05-30T03:36:40.662Z,13.60
2019-05-30T03:39:10.814Z,13.60
2019-05-30T03:41:40.961Z,13.60
2019-05-30T03:44:13.893Z,13.60
2019-05-30T03:46:47.117Z,13.40
2019-05-30T03:49:19.509Z,13.40
2019-05-30T03:51:49.568Z,13.40
2019-05-30T03:54:19.047Z,13.40
2019-05-30T03:56:52.782Z,13.40
2019-05-30T03:59:32.239Z,13.40
2019-05-30T04:02:26.443Z,13.10
2019-05-30T04:05:02.643Z,13.30
2019-05-30T04:07:34.189Z,13.40
2019-05-30T04:10:03.380Z,13.40
2019-05-30T04:12:57.499Z,13.50
2019-05-30T04:15:30.953Z,13.60
2019-05-30T04:17:59.842Z,13.60
2019-05-30T04:22:59.741Z,13.80
2019-05-30T04:25:28.912Z,13.90
2019-05-30T04:27:57.786Z,13.60
2019-05-30T04:30:26.984Z,14.00
2019-05-30T04:33:16.292Z,14.10
2019-05-30T04:35:31.320Z,14.10
2019-05-30T04:38:02.732Z,14.20
2019-05-30T04:40:31.270Z,14.10
2019-05-30T04:43:00.758Z,14.30
2019-05-30T04:45:29.488Z,14.40
2019-05-30T04:47:57.853Z,14.50
2019-05-30T04:50:26.798Z,14.60
2019-05-30T04:52:56.565Z,14.60
2019-05-30T04:55:24.920Z,14.70
2019-05-30T04:57:52.669Z,14.80
2019-05-30T05:00:21.901Z,14.90
2019-05-30T05:02:50.477Z,15.10
2019-05-30T05:05:24.752Z,15.10
2019-05-30T05:07:49.793Z,15.10
2019-05-30T05:10:18.239Z,15.10
2019-05-30T05:12:46.562Z,15.10
2019-05-30T05:15:14.652Z,15.10
2019-05-30T05:17:42.789Z,15.30
2019-05-30T05:22:42.324Z,15.50
2019-05-30T05:25:10.384Z,15.50
2019-05-30T05:27:38.047Z,15.80
2019-05-30T05:30:10.535Z,15.80
2019-05-30T05:32:40.795Z,16.00
2019-05-30T05:35:09.341Z,16.00
2019-05-30T05:37:39.264Z,16.20
2019-05-30T05:40:08.260Z,16.20
2019-05-30T05:42:37.652Z,16.30
2019-05-30T05:45:05.520Z,16.30
2019-05-30T05:47:33.601Z,16.50
2019-05-30T05:50:02.097Z,16.50
2019-05-30T05:52:30.429Z,16.70
2019-05-30T05:54:58.637Z,16.80
2019-05-30T05:57:26.605Z,17.00
2019-05-30T05:59:54.772Z,17.10
2019-05-30T06:02:25.183Z,17.00
2019-05-30T06:04:53.487Z,17.10
2019-05-30T06:07:22.561Z,17.30
2019-05-30T06:09:50.819Z,17.50
2019-05-30T06:12:21.763Z,17.60
2019-05-30T06:14:52.551Z,17.80
2019-05-30T06:17:29.336Z,17.90
2019-05-30T06:19:57.635Z,18.00
2019-05-30T06:22:25.968Z,17.80
2019-05-30T06:24:54.154Z,17.70
2019-05-30T06:27:21.963Z,17.80
2019-05-30T06:32:18.556Z,18.00
2019-05-30T06:34:46.403Z,18.00
2019-05-30T06:37:14.509Z,18.00
2019-05-30T06:39:42.620Z,18.30
2019-05-30T06:42:13.247Z,18.50
2019-05-30T06:44:44.296Z,18.80
2019-05-30T06:47:13.813Z,18.80
2019-05-30T06:49:43.331Z,18.70
2019-05-30T06:52:11.812Z,18.50
2019-05-30T06:54:40.339Z,18.50
2019-05-30T06:57:09.028Z,18.40
2019-05-30T06:59:37.817Z,18.40
2019-05-30T07:02:06.937Z,18.40
2019-05-30T07:04:51.038Z,18.30
2019-05-30T07:07:08.727Z,18.30
2019-05-30T07:09:37.358Z,18.30
2019-05-30T07:12:11.272Z,18.40
2019-05-30T07:14:39.181Z,18.40
2019-05-30T07:17:10.838Z,18.60
2019-05-30T07:19:38.772Z,18.60
2019-05-30T07:22:07.851Z,18.60
2019-05-30T07:24:40.197Z,18.70
2019-05-30T07:27:09.033Z,18.90
2019-05-30T07:29:37.324Z,19.30
2019-05-30T07:34:36.583Z,19.60
2019-05-30T07:37:04.569Z,19.60
2019-05-30T07:39:35.240Z,19.60
2019-05-30T07:42:06.593Z,19.40
2019-05-30T07:44:35.791Z,19.10
2019-05-30T07:47:05.493Z,19.10
2019-05-30T07:49:35.783Z,19.00
2019-05-30T07:52:08.277Z,19.20
2019-05-30T07:54:36.765Z,19.00
2019-05-30T07:57:08.010Z,19.20
2019-05-30T07:59:36.791Z,19.50
2019-05-30T08:02:05.609Z,19.70
2019-05-30T08:04:35.402Z,19.80
2019-05-30T08:07:07.877Z,19.90
2019-05-30T08:09:37.161Z,21.10
2019-05-30T08:12:06.586Z,21.30
2019-05-30T08:14:37.382Z,21.00
2019-05-30T08:17:06.706Z,21.10
2019-05-30T08:19:36.544Z,20.70
2019-05-30T08:22:06.540Z,20.40
2019-05-30T08:24:40.497Z,20.10
2019-05-30T08:27:08.698Z,20.10
2019-05-30T08:29:38.453Z,19.60
2019-05-30T08:32:07.308Z,19.50
2019-05-30T08:34:37.074Z,19.50
2019-05-30T08:37:05.339Z,19.50
2019-05-30T08:39:33.681Z,19.40
2019-05-30T08:42:08.097Z,19.30
2019-05-30T08:44:36.192Z,19.30
2019-05-30T08:47:05.943Z,19.40
2019-05-30T08:49:34.471Z,19.50
2019-05-30T08:52:05.396Z,20.10
2019-05-30T08:57:07.426Z,20.30
2019-05-30T08:59:36.667Z,20.40
2019-05-30T09:02:04.569Z,20.80
2019-05-30T09:04:34.021Z,20.80
2019-05-30T09:07:02.473Z,20.70
2019-05-30T09:09:31.989Z,20.70
2019-05-30T09:11:59.391Z,20.70
2019-05-30T09:14:33.234Z,20.80
2019-05-30T09:17:01.939Z,21.00
2019-05-30T09:19:30.850Z,20.90
2019-05-30T09:21:59.983Z,20.90
2019-05-30T09:24:30.287Z,20.90
2019-05-30T09:26:59.491Z,21.00
2019-05-30T09:29:27.884Z,21.20
2019-05-30T09:31:57.887Z,21.30
2019-05-30T09:34:26.970Z,21.30
2019-05-30T09:36:56.551Z,21.20
2019-05-30T09:39:24.218Z,21.20
2019-05-30T09:41:53.394Z,20.80
2019-05-30T09:44:21.304Z,20.80
2019-05-30T09:46:50.540Z,20.50
2019-05-30T09:49:19.250Z,20.50
2019-05-30T09:51:48.959Z,20.50
2019-05-30T09:54:19.312Z,20.50
2019-05-30T09:56:48.467Z,20.50
2019-05-30T09:59:17.010Z,20.60
2019-05-30T10:01:46.076Z,20.60
2019-05-30T10:04:31.419Z,20.60
2019-05-30T10:09:27.920Z,20.90
2019-05-30T10:12:02.556Z,20.90
2019-05-30T10:14:31.184Z,21.00
2019-05-30T10:17:00.446Z,21.00
2019-05-30T10:19:34.122Z,21.00
2019-05-30T10:22:01.970Z,20.80
2019-05-30T10:24:29.772Z,20.80
2019-05-30T10:26:57.453Z,20.60
2019-05-30T10:29:26.298Z,20.70
2019-05-30T10:31:56.937Z,20.70
2019-05-30T10:34:28.833Z,20.70
2019-05-30T10:36:56.807Z,20.70
2019-05-30T10:39:25.586Z,20.70
2019-05-30T10:41:53.444Z,20.80
2019-05-30T10:44:21.620Z,20.80
2019-05-30T10:46:50.997Z,20.90
2019-05-30T10:49:33.788Z,21.20
2019-05-30T10:51:51.593Z,21.30
2019-05-30T10:54:20.379Z,21.50
2019-05-30T10:56:49.983Z,21.60
2019-05-30T10:59:20.192Z,21.70
2019-05-30T11:01:50.371Z,21.50
2019-05-30T11:04:19.202Z,21.40
2019-05-30T11:07:11.645Z,22.00
2019-05-30T11:09:46.622Z,21.20
2019-05-30T11:12:17.292Z,21.30
2019-05-30T11:14:53.656Z,21.20
2019-05-30T11:17:23.881Z,21.20
2019-05-30T11:20:01.784Z,21.10
2019-05-30T11:22:31.670Z,21.10
2019-05-30T11:24:59.726Z,21.10
2019-05-30T11:27:28.176Z,21.30
2019-05-30T11:29:56.910Z,21.20
2019-05-30T11:32:25.536Z,21.30
2019-05-30T11:34:57.483Z,21.20
2019-05-30T11:37:26.154Z,21.10
2019-05-30T11:39:55.513Z,21.00
2019-05-30T11:42:24.666Z,21.10
2019-05-30T11:44:53.725Z,21.10
2019-05-30T11:47:22.105Z,21.40
2019-05-30T11:49:51.593Z,21.50
2019-05-30T11:52:26.195Z,21.60
2019-05-30T11:54:58.100Z,21.70
2019-05-30T11:57:27.262Z,21.50
2019-05-30T12:02:24.604Z,21.40
2019-05-30T12:07:35.833Z,21.20
2019-05-30T12:09:56.909Z,21.20
2019-05-30T12:12:25.417Z,21.10
2019-05-30T12:19:56.051Z,20.90
2019-05-30T12:22:25.918Z,20.90
2019-05-30T12:24:56.087Z,20.80
2019-05-30T12:27:25.574Z,20.70
2019-05-30T12:29:58.305Z,20.70
2019-05-30T12:32:29.420Z,20.60
2019-05-30T12:34:58.337Z,20.60
2019-05-30T12:37:30.614Z,20.50
2019-05-30T12:40:00.634Z,20.60
2019-05-30T12:42:29.300Z,20.60
2019-05-30T12:44:59.054Z,20.80
2019-05-30T12:47:27.702Z,20.80
2019-05-30T12:49:57.219Z,21.00
2019-05-30T12:52:25.532Z,21.10
2019-05-30T12:54:54.499Z,21.40
2019-05-30T12:57:22.659Z,21.50
2019-05-30T12:59:54.716Z,21.50
2019-05-30T13:02:23.420Z,21.50
2019-05-30T13:04:52.062Z,21.50
2019-05-30T13:07:20.198Z,21.50
2019-05-30T13:09:48.753Z,21.70
2019-05-30T13:12:17.531Z,21.80
2019-05-30T13:14:44.851Z,21.80
2019-05-30T13:17:13.688Z,21.90
2019-05-30T13:19:41.962Z,22.00
2019-05-30T13:22:09.743Z,22.30
2019-05-30T13:24:40.876Z,22.30
2019-05-30T13:27:09.739Z,22.10
2019-05-30T13:29:40.438Z,22.10
2019-05-30T13:32:09.250Z,21.90
2019-05-30T13:34:40.440Z,21.80
2019-05-30T13:37:10.604Z,21.80
2019-05-30T13:39:39.985Z,21.90
2019-05-30T13:42:07.920Z,22.00
2019-05-30T13:44:36.811Z,22.00
2019-05-30T13:47:05.037Z,21.90
2019-05-30T13:49:35.217Z,21.90
2019-05-30T13:52:12.650Z,21.90
2019-05-30T13:54:41.620Z,21.70
2019-05-30T13:57:12.206Z,21.60
2019-05-30T13:59:42.686Z,21.60
2019-05-30T14:02:10.400Z,21.70
2019-05-30T14:04:44.225Z,21.80
2019-05-30T14:07:17.185Z,21.90
2019-05-30T14:12:16.021Z,22.10
2019-05-30T14:14:47.011Z,22.00
2019-05-30T14:17:14.728Z,21.90
2019-05-30T14:19:43.696Z,21.90
2019-05-30T14:22:14.368Z,21.80
2019-05-30T14:24:45.191Z,21.70
2019-05-30T14:27:20.306Z,21.70
2019-05-30T14:29:50.264Z,21.70
2019-05-30T14:32:18.451Z,21.60
2019-05-30T14:34:46.799Z,21.60
2019-05-30T14:37:15.156Z,21.40
2019-05-30T14:39:44.838Z,21.50
2019-05-30T14:42:13.275Z,21.60
2019-05-30T14:44:41.671Z,21.60
2019-05-30T14:47:10.452Z,21.40
2019-05-30T14:49:39.104Z,21.30
2019-05-30T14:52:08.810Z,21.30
2019-05-30T14:54:37.622Z,21.30
2019-05-30T14:57:06.920Z,21.10
2019-05-30T14:59:37.351Z,21.20
2019-05-30T15:02:07.124Z,21.30
2019-05-30T15:04:37.759Z,21.30
2019-05-30T15:07:07.651Z,21.30
2019-05-30T15:09:50.423Z,21.40
2019-05-30T15:12:21.053Z,21.30
2019-05-30T15:14:52.258Z,21.30
2019-05-30T15:17:21.394Z,21.30
2019-05-30T15:19:49.420Z,21.20
2019-05-30T15:24:47.428Z,21.20
2019-05-30T15:27:16.587Z,21.20
2019-05-30T15:29:45.125Z,21.20
2019-05-30T15:32:16.514Z,21.20
2019-05-30T15:34:45.996Z,21.20
2019-05-30T15:37:14.861Z,21.10
2019-05-30T15:39:47.674Z,21.10
2019-05-30T15:42:15.470Z,21.00
2019-05-30T15:44:45.719Z,20.80
2019-05-30T15:47:14.535Z,20.70
2019-05-30T15:49:42.707Z,20.70
2019-05-30T15:52:13.334Z,20.80
2019-05-30T15:54:45.625Z,20.80
2019-05-30T15:57:13.995Z,20.80
2019-05-30T15:59:44.291Z,20.90
2019-05-30T16:02:12.311Z,20.90
2019-05-30T16:05:10.465Z,20.90
2019-05-30T16:07:39.376Z,20.90
2019-05-30T16:10:10.852Z,20.90
2019-05-30T16:12:41.146Z,20.90
2019-05-30T16:15:11.439Z,20.90
2019-05-30T16:17:40.243Z,20.90
2019-05-30T16:20:08.889Z,20.80
2019-05-30T16:22:37.819Z,20.80
2019-05-30T16:25:07.873Z,20.70
2019-05-30T16:27:36.315Z,20.70
2019-05-30T16:30:19.653Z,20.70
2019-05-30T16:32:45.996Z,20.80
2019-05-30T16:35:18.451Z,20.80
2019-05-30T16:37:49.065Z,20.80
2019-05-30T16:40:20.347Z,20.80
2019-05-30T16:42:50.524Z,20.80
2019-05-30T16:45:24.672Z,20.80
2019-05-30T16:47:51.124Z,20.80
2019-05-30T16:50:23.748Z,20.80
2019-05-30T16:52:52.620Z,20.80
2019-05-30T16:55:27.505Z,20.80
2019-05-30T16:57:58.569Z,20.80
2019-05-30T17:00:28.997Z,20.80
2019-05-30T17:02:58.112Z,20.80
2019-05-30T17:05:26.984Z,20.80
2019-05-30T17:07:55.662Z,20.70
2019-05-30T17:10:32.244Z,20.70
2019-05-30T17:12:55.500Z,20.70
2019-05-30T17:15:26.515Z,20.60
2019-05-30T17:17:55.375Z,20.60
2019-05-30T17:20:26.832Z,20.50
2019-05-30T17:22:54.964Z,20.50
2019-05-30T17:25:23.493Z,20.40
2019-05-30T17:30:21.727Z,20.30
2019-05-30T17:32:50.258Z,20.30
2019-05-30T17:35:20.036Z,20.30
2019-05-30T17:37:48.727Z,20.30
2019-05-30T17:40:17.104Z,20.30
2019-05-30T17:42:47.313Z,20.40
2019-05-30T17:45:19.256Z,20.40
2019-05-30T17:47:59.467Z,20.40
2019-05-30T17:50:19.942Z,20.40
2019-05-30T17:52:51.253Z,20.40
2019-05-30T17:55:21.721Z,20.20
2019-05-30T17:57:49.605Z,20.40
2019-05-30T18:00:18.408Z,20.30
2019-05-30T18:02:47.106Z,20.30
2019-05-30T18:05:18.384Z,20.30
2019-05-30T18:07:51.526Z,20.20
2019-05-30T18:10:20.728Z,20.20
2019-05-30T18:12:50.695Z,20.10
2019-05-30T18:15:27.287Z,20.10
2019-05-30T18:17:53.083Z,20.10
2019-05-30T18:20:23.120Z,20.10
2019-05-30T18:22:52.336Z,20.10
2019-05-30T18:25:21.620Z,20.10
2019-05-30T18:27:50.323Z,20.10
2019-05-30T18:30:19.402Z,20.10
2019-05-30T18:32:48.223Z,20.00
2019-05-30T18:35:18.999Z,20.00
2019-05-30T18:37:47.829Z,19.90
2019-05-30T18:40:24.727Z,19.90
2019-05-30T18:42:54.192Z,19.90
2019-05-30T18:45:32.964Z,19.90
2019-05-30T18:48:03.475Z,19.90
2019-05-30T18:55:37.862Z,19.80
2019-05-30T18:58:07.533Z,19.80
2019-05-30T19:00:37.548Z,19.70
2019-05-30T19:05:37.020Z,19.60
2019-05-30T19:08:06.310Z,19.60
2019-05-30T19:10:36.646Z,19.60
2019-05-30T19:13:05.160Z,19.50
2019-05-30T19:15:34.242Z,19.50
2019-05-30T19:18:04.409Z,19.40
2019-05-30T19:20:33.874Z,19.50
2019-05-30T19:23:03.864Z,19.40
2019-05-30T19:25:32.437Z,19.40
2019-05-30T19:28:02.009Z,19.40
2019-05-30T19:30:30.625Z,19.30
2019-05-30T19:35:35.257Z,19.30
2019-05-30T19:38:03.976Z,19.30
2019-05-30T19:40:33.655Z,19.30
2019-05-30T19:43:02.817Z,19.30
2019-05-30T19:45:31.959Z,19.30
2019-05-30T19:48:00.507Z,19.30
2019-05-30T19:50:30.437Z,19.30
2019-05-30T19:55:31.094Z,19.30
2019-05-30T19:58:04.175Z,19.30
2019-05-30T20:00:34.062Z,19.20
2019-05-30T20:03:05.208Z,19.10
2019-05-30T20:05:34.581Z,19.10
2019-05-30T20:08:08.844Z,19.00
2019-05-30T20:10:43.885Z,19.10
2019-05-30T20:13:12.139Z,19.00
2019-05-30T20:15:42.314Z,19.00
2019-05-30T20:18:12.679Z,19.00
2019-05-30T20:20:53.977Z,19.00
2019-05-30T20:25:45.566Z,19.00
2019-05-30T20:28:15.286Z,18.90
2019-05-30T20:30:47.211Z,18.90
2019-05-30T20:33:15.665Z,18.90
2019-05-30T20:35:43.925Z,18.90
2019-05-30T20:38:12.823Z,18.90
2019-05-30T20:40:41.325Z,18.90
2019-05-30T20:43:10.310Z,19.00
2019-05-30T20:45:45.675Z,19.00
2019-05-30T20:50:39.743Z,19.00
2019-05-30T20:53:09.421Z,19.00
2019-05-30T20:55:38.706Z,18.90
2019-05-30T20:58:08.378Z,18.90
2019-05-30T21:00:37.751Z,18.80
2019-05-30T21:03:06.967Z,18.80
2019-05-30T21:05:39.796Z,18.80
2019-05-30T21:08:08.770Z,18.80
2019-05-30T21:10:39.212Z,18.80
2019-05-30T21:13:11.311Z,18.70
2019-05-30T21:18:09.944Z,18.70
2019-05-30T21:20:39.953Z,18.70
2019-05-30T21:23:08.423Z,18.70
2019-05-30T21:25:38.930Z,18.70
2019-05-30T21:28:07.946Z,18.60
2019-05-30T21:30:36.774Z,18.60
2019-05-30T21:35:37.584Z,18.60
2019-05-30T21:38:06.091Z,18.60
2019-05-30T21:40:34.982Z,18.60
2019-05-30T21:43:06.838Z,18.60
2019-05-30T21:45:35.281Z,18.60
2019-05-30T21:48:07.999Z,18.60
2019-05-30T21:50:36.089Z,18.50
2019-05-30T21:53:04.747Z,18.50
2019-05-30T21:55:33.856Z,18.50
2019-05-30T22:01:20.295Z,18.50
2019-05-30T22:03:49.344Z,18.50
2019-05-30T22:06:17.740Z,18.50
2019-05-30T22:08:51.533Z,18.50
2019-05-30T22:11:22.308Z,18.50
2019-05-30T22:13:56.248Z,18.50
2019-05-30T22:16:23.948Z,18.60
2019-05-30T22:18:59.402Z,18.50
2019-05-30T22:21:32.925Z,18.50
2019-05-30T22:24:03.128Z,18.50
2019-05-30T22:26:31.223Z,18.50
2019-05-30T22:29:03.768Z,18.40
2019-05-30T22:31:32.235Z,18.40
2019-05-30T22:34:00.924Z,18.40
2019-05-30T22:36:32.239Z,18.40
2019-05-30T22:39:00.664Z,18.40
2019-05-30T22:41:30.631Z,18.40
2019-05-30T22:43:58.690Z,18.40
2019-05-30T22:46:27.910Z,18.40
2019-05-30T22:48:56.955Z,18.40
2019-05-30T22:51:27.534Z,18.40
2019-05-30T22:53:55.237Z,18.40
2019-05-30T22:56:23.544Z,18.40
2019-05-30T22:58:53.668Z,18.40
2019-05-30T23:01:24.202Z,18.40
2019-05-30T23:03:54.074Z,18.30
2019-05-30T23:06:22.087Z,18.30
2019-05-30T23:08:52.513Z,18.30
2019-05-30T23:11:23.336Z,18.30
2019-05-30T23:13:56.178Z,18.30
2019-05-30T23:16:24.195Z,18.30
2019-05-30T23:18:52.939Z,18.20
2019-05-30T23:21:22.979Z,18.30
2019-05-30T23:23:51.887Z,18.20
2019-05-30T23:26:19.857Z,18.30
2019-05-30T23:28:47.513Z,18.30
2019-05-30T23:31:35.959Z,18.30
2019-05-30T23:34:04.595Z,18.30
2019-05-30T23:36:33.200Z,18.30
2019-05-30T23:39:00.887Z,18.30
2019-05-30T23:41:30.516Z,18.20
2019-05-30T23:44:10.529Z,18.20
2019-05-30T23:46:28.079Z,18.20
2019-05-30T23:48:56.079Z,18.20
2019-05-30T23:51:24.140Z,18.20
2019-05-30T23:53:52.521Z,18.20
2019-05-30T23:56:23.797Z,18.20
2019-05-30T23:58:54.726Z,18.10
